Impacts METAR Board INFO
IDs:

KPHL - Philadelphia Intl, PA, US

Updated at: 0341 UTC 19 Feb 2018
Potential Impact None Slight Moderate High
Time18/15Z 18/16Z 18/17Z 18/18Z 18/19Z 18/20Z 18/21Z 18/22Z 18/23Z 19/00Z 19/01Z 19/02Z 19/03Z
VIS10 10 10 10 10 10 10 10 10 10 10 10 10
CIG-- -- -- -- -- 250 250 250 250 -- -- -- --
CoverSCTSCTSCTSCTSCTBKNBKNBKNBKNSCTFEWCLRCLR
FltCatVFRVFRVFRVFRVFRVFRVFRVFRVFRVFRVFRVFRVFR
WX--------------------------
WDir310310320320310310280310310290360110100
WSpd8 12 11 14 8 11 7 8 6 7 4 3 4
WGst-- 16 -- 18 -- -- -- -- -- -- -- -- --
Raw hourly METARs
KPHL 181454Z 31008KT 10SM FEW020 SCT036 04/M02 A3034 RMK AO2 SLP274 T00391022 51050 $
KPHL 181554Z 31012G16KT 10SM SCT037 04/M03 A3038 RMK AO2 SLP286 T00441033 $
KPHL 181654Z 32011KT 10SM SCT039 06/M04 A3038 RMK AO2 SLP287 T00561039 $
KPHL 181754Z 32014G18KT 10SM SCT043 07/M03 A3039 RMK AO2 SLP290 T00671033 10067 20017 51016 $
KPHL 181854Z 31008KT 10SM FEW043 SCT250 07/M04 A3039 RMK AO2 SLP291 T00671044 $
KPHL 181954Z 31011KT 10SM FEW045 BKN250 08/M04 A3038 RMK AO2 SLP288 T00781039 $
KPHL 182054Z 28007KT 10SM BKN250 07/M04 A3041 RMK AO2 SLP298 T00721044 53007 $
KPHL 182154Z 31008KT 10SM BKN250 07/M04 A3043 RMK AO2 SLP305 T00721044 $
KPHL 182254Z 31006KT 10SM BKN250 07/M04 A3045 RMK AO2 SLP310 T00671044 $
KPHL 182354Z 29007KT 10SM SCT250 06/M04 A3048 RMK AO2 SLP319 T00611044 10078 20061 53022 $
KPHL 190054Z 36004KT 10SM FEW250 05/M04 A3049 RMK AO2 SLP322 T00501039 $
KPHL 190154Z 11003KT 10SM CLR 04/M04 A3049 RMK AO2 SLP326 T00391039 $
KPHL 190254Z 10004KT 10SM CLR 02/M02 A3050 RMK AO2 SLP328 T00171022 51008 $